Terminal Aerodrome Forecast
Issued by NWS Cleveland, OH

Home | Current Version | Previous Version | Text Only | Print | Product List | Glossary Off
Versions: 1 2 3 4 5 6 7 8 9 10 11 12 13 14 15 16

000
FTUS41 KCLE 231000 AAA
TAFERI
TAF AMD
KERI 231007Z 2310/2406 36008KT P6SM SCT025 BKN035
      TEMPO 2310/2312 BKN025
     FM231200 36008KT P6SM SCT025
     FM231600 32008KT P6SM SKC
     FM232300 32004KT P6SM SCT250=

USA.gov is the U.S. government's official web portal to all federal, state and local government web resources and services.